Time;durP1;ratioP1;P1;durP2;ratioP2;P2;SDS_P1;SDS_P2;PMS_P1;PMS_P2;Temp;Humidity;BMP_temperature;BMP_pressure;BME280_temperature;BME280_humidity;BME280_pressure;Samples;Min_cycle;Max_cycle;Signal;HPM_P1;HPM_P2
2024/02/25 00:02:07;;;;;;;16.33;9.25;;;;;;;4.31;100.00;98214.63;4972822;28;20133;-94
2024/02/25 00:04:33;;;;;;;9.93;6.78;;;;;;;4.31;100.00;98209.38;4966673;28;20092;-95
2024/02/25 00:06:59;;;;;;;12.30;6.43;;;;;;;4.31;100.00;98216.41;4980588;28;20048;-94
2024/02/25 00:09:24;;;;;;;10.85;6.50;;;;;;;4.25;100.00;98215.25;4975647;28;20053;-95
2024/02/25 00:11:50;;;;;;;15.13;7.03;;;;;;;4.25;100.00;98210.03;4953025;28;20104;-94
2024/02/25 00:14:16;;;;;;;13.02;6.47;;;;;;;4.23;100.00;98209.34;4967354;28;20026;-95
2024/02/25 00:16:42;;;;;;;8.88;5.28;;;;;;;4.19;100.00;98203.63;4972075;28;20102;-94
2024/02/25 00:19:08;;;;;;;9.52;5.88;;;;;;;4.20;100.00;98201.84;4963600;28;20034;-94
2024/02/25 00:21:34;;;;;;;13.77;6.97;;;;;;;4.17;100.00;98194.31;4989311;28;20101;-94
2024/02/25 00:24:00;;;;;;;11.25;5.75;;;;;;;4.17;100.00;98192.50;4956299;28;20503;-95
2024/02/25 00:26:27;;;;;;;11.85;5.82;;;;;;;4.19;100.00;98187.94;4961422;28;20038;-94
2024/02/25 00:28:52;;;;;;;11.30;6.10;;;;;;;4.22;100.00;98185.00;4980414;28;20490;-95
2024/02/25 00:31:18;;;;;;;9.18;5.57;;;;;;;4.28;100.00;98180.94;4959385;28;20048;-94
2024/02/25 00:33:45;;;;;;;11.23;6.40;;;;;;;4.30;100.00;98175.56;4960788;28;20037;-96
2024/02/25 00:36:11;;;;;;;12.95;5.28;;;;;;;4.35;100.00;98178.47;4962832;28;20044;-96
2024/02/25 00:38:40;;;;;;;9.18;4.97;;;;;;;4.34;100.00;98174.25;4973348;28;20045;-96
2024/02/25 00:41:12;;;;;;;8.75;4.90;;;;;;;4.34;100.00;98169.84;4966679;28;20038;-96
2024/02/25 00:43:41;;;;;;;13.73;5.85;;;;;;;4.39;100.00;98169.34;4964830;28;20040;-96
2024/02/25 00:46:15;;;;;;;13.30;5.95;;;;;;;4.49;100.00;98161.34;4976886;28;20044;-96
2024/02/25 00:48:59;;;;;;;13.23;5.60;;;;;;;4.49;100.00;98155.31;4974129;28;20032;-96
2024/02/25 00:51:30;;;;;;;13.40;5.55;;;;;;;4.48;100.00;98159.72;4977997;28;20467;-96
2024/02/25 00:54:01;;;;;;;12.23;4.93;;;;;;;4.47;100.00;98158.88;4957514;28;20070;-96
2024/02/25 00:56:27;;;;;;;11.73;5.28;;;;;;;4.44;100.00;98147.94;4961939;28;20070;-96
2024/02/25 00:58:53;;;;;;;16.92;5.60;;;;;;;4.49;100.00;98150.06;4978580;28;20045;-96
2024/02/25 01:01:26;;;;;;;12.52;4.05;;;;;;;4.45;100.00;98141.72;4956595;28;20042;-96
2024/02/25 01:03:55;;;;;;;13.23;3.80;;;;;;;4.49;100.00;98143.03;4966805;28;20046;-96
2024/02/25 01:06:24;;;;;;;5.47;2.47;;;;;;;4.47;100.00;98142.38;4992119;28;20060;-96
2024/02/25 01:08:54;;;;;;;7.60;2.53;;;;;;;4.46;100.00;98143.34;4976820;28;20157;-96
2024/02/25 01:11:23;;;;;;;13.40;5.28;;;;;;;4.48;100.00;98125.69;4968920;28;20534;-96
2024/02/25 01:14:06;;;;;;;11.75;4.68;;;;;;;4.42;100.00;98113.28;4959190;28;20099;-96
2024/02/25 01:16:37;;;;;;;7.50;2.50;;;;;;;4.39;100.00;98124.06;4971322;28;20097;-96
2024/02/25 01:19:13;;;;;;;4.45;2.13;;;;;;;4.39;100.00;98109.19;4962706;28;20038;-96
2024/02/25 01:21:58;;;;;;;5.10;2.05;;;;;;;4.39;100.00;98105.75;4991453;28;20026;-96
2024/02/25 01:24:27;;;;;;;6.85;2.03;;;;;;;4.38;100.00;98104.94;4958571;28;20109;-96
2024/02/25 01:26:53;;;;;;;8.55;3.53;;;;;;;4.38;100.00;98096.28;4957571;28;20705;-96
2024/02/25 01:29:24;;;;;;;14.48;5.03;;;;;;;4.37;100.00;98087.59;4976346;28;20038;-96
2024/02/25 01:31:53;;;;;;;7.88;3.13;;;;;;;4.46;100.00;98085.81;4974562;28;20052;-96
2024/02/25 01:34:21;;;;;;;7.75;3.03;;;;;;;4.46;100.00;98085.81;4975042;28;20053;-96
2024/02/25 01:36:50;;;;;;;7.55;2.58;;;;;;;4.49;100.00;98084.69;4973942;28;20046;-96
2024/02/25 01:39:24;;;;;;;4.70;1.50;;;;;;;4.47;100.00;98090.06;4981554;28;20041;-96
2024/02/25 01:42:15;;;;;;;3.92;1.58;;;;;;;4.59;100.00;98093.16;4984125;28;20057;-96
2024/02/25 01:45:02;;;;;;;4.18;1.10;;;;;;;4.59;100.00;98080.91;4978511;28;20038;-96
2024/02/25 01:47:51;;;;;;;4.95;1.58;;;;;;;4.63;100.00;98094.50;5004877;28;20029;-96
2024/02/25 01:50:20;;;;;;;4.10;1.00;;;;;;;4.69;100.00;98096.44;4981993;28;20061;-96
2024/02/25 01:52:59;;;;;;;5.80;1.48;;;;;;;4.76;100.00;98086.09;4979967;28;20030;-96
2024/02/25 01:55:39;;;;;;;8.18;2.00;;;;;;;4.87;100.00;98086.78;4987338;28;20042;-96
2024/02/25 01:58:22;;;;;;;7.20;2.13;;;;;;;4.90;100.00;98089.88;4976842;28;20077;-96
2024/02/25 02:00:50;;;;;;;3.90;2.00;;;;;;;4.88;100.00;98077.91;4960263;28;20034;-96
2024/02/25 02:03:18;;;;;;;5.28;1.30;;;;;;;4.91;100.00;98072.34;4970919;28;20034;-96
2024/02/25 02:05:52;;;;;;;5.43;1.70;;;;;;;4.86;100.00;98062.38;4962360;28;20034;-96
2024/02/25 02:08:20;;;;;;;4.80;1.60;;;;;;;4.80;100.00;98057.81;4988549;28;20033;-96
2024/02/25 02:11:05;;;;;;;6.65;1.70;;;;;;;4.86;100.00;98066.81;4965060;28;20054;-96
2024/02/25 02:13:43;;;;;;;9.10;2.00;;;;;;;4.76;100.00;98049.47;4994070;28;20052;-96
2024/02/25 02:16:13;;;;;;;4.95;1.58;;;;;;;4.74;100.00;98034.94;4981521;28;20036;-96
2024/02/25 02:18:47;;;;;;;5.53;1.88;;;;;;;4.87;100.00;98055.34;4982726;28;20038;-96
2024/02/25 02:21:24;;;;;;;7.07;1.98;;;;;;;4.82;100.00;98046.22;4980625;28;20052;-96
2024/02/25 02:23:53;;;;;;;4.20;1.83;;;;;;;4.84;100.00;98041.63;4965778;28;20494;-96
2024/02/25 02:26:25;;;;;;;4.88;1.60;;;;;;;4.81;100.00;98030.69;4975353;28;20482;-96
2024/02/25 02:28:56;;;;;;;4.05;1.75;;;;;;;4.92;100.00;98037.34;4971567;28;20042;-96
2024/02/25 02:31:32;;;;;;;5.38;1.85;;;;;;;4.94;100.00;98041.44;4976717;28;20054;-96
2024/02/25 02:34:05;;;;;;;4.32;1.42;;;;;;;4.95;100.00;98037.81;4960674;28;20070;-96
2024/02/25 02:36:34;;;;;;;5.57;2.15;;;;;;;4.97;100.00;98038.47;4973732;28;20044;-96
2024/02/25 02:39:04;;;;;;;5.32;1.70;;;;;;;4.95;100.00;98037.81;4977006;28;20080;-96
2024/02/25 02:41:33;;;;;;;7.10;1.40;;;;;;;4.96;100.00;98041.25;4973015;28;20034;-96
2024/02/25 02:44:03;;;;;;;7.15;1.30;;;;;;;5.00;100.00;98044.38;4978568;28;20129;-96
2024/02/25 02:46:55;;;;;;;4.40;1.38;;;;;;;5.01;100.00;98038.97;4991775;28;20030;-96
2024/02/25 02:49:24;;;;;;;5.80;1.30;;;;;;;4.94;100.00;98036.19;4953623;28;20038;-96
2024/02/25 02:52:02;;;;;;;5.45;1.23;;;;;;;4.99;100.00;98029.63;4976309;28;20030;-96
2024/02/25 02:54:34;;;;;;;6.97;2.42;;;;;;;4.93;100.00;98023.28;4975427;28;20502;-96
2024/02/25 02:57:03;;;;;;;6.60;1.33;;;;;;;4.97;100.00;98020.16;4980732;28;20038;-96
2024/02/25 03:00:04;;;;;;;8.43;1.40;;;;;;;5.05;100.00;98027.16;4986552;28;20112;-96
2024/02/25 03:02:33;;;;;;;4.22;1.17;;;;;;;4.99;100.00;98027.84;4978157;28;20042;-96
2024/02/25 03:05:15;;;;;;;3.85;0.95;;;;;;;4.99;100.00;98030.47;4981333;28;20594;-96
2024/02/25 03:07:49;;;;;;;3.88;0.90;;;;;;;5.07;100.00;98017.34;4998214;28;20045;-96
2024/02/25 03:10:16;;;;;;;4.10;1.15;;;;;;;5.08;100.00;98024.19;4974557;28;20037;-96
2024/02/25 03:12:43;;;;;;;3.28;1.23;;;;;;;5.05;100.00;98008.00;4965042;28;20025;-96
2024/02/25 03:15:10;;;;;;;4.88;1.50;;;;;;;5.14;100.00;98008.81;4978601;28;20487;-96
2024/02/25 03:17:38;;;;;;;3.83;1.27;;;;;;;5.17;100.00;98013.72;4959261;28;20486;-96
2024/02/25 03:20:08;;;;;;;4.32;1.55;;;;;;;5.24;100.00;98017.28;4978530;28;20050;-96
2024/02/25 03:22:35;;;;;;;4.72;1.20;;;;;;;5.27;100.00;98014.31;4977915;28;20041;-96
2024/02/25 03:25:03;;;;;;;6.78;1.55;;;;;;;5.29;100.00;98007.09;4976694;28;20041;-96
2024/02/25 03:27:31;;;;;;;5.30;1.48;;;;;;;5.36;100.00;98009.03;4978443;28;20057;-96
2024/02/25 03:29:57;;;;;;;5.45;1.20;;;;;;;5.30;100.00;97995.63;4979977;28;20068;-96
2024/02/25 03:32:23;;;;;;;6.18;1.23;;;;;;;5.33;100.00;98002.34;4970702;28;20069;-96
2024/02/25 03:34:50;;;;;;;5.57;1.20;;;;;;;5.27;100.00;97990.72;4974531;28;20232;-96
2024/02/25 03:37:22;;;;;;;3.47;1.20;;;;;;;5.25;100.00;97992.72;4977647;28;20034;-96
2024/02/25 03:39:47;;;;;;;3.70;1.20;;;;;;;5.18;100.00;97984.72;4990718;28;20112;-96
2024/02/25 03:42:13;;;;;;;8.60;1.85;;;;;;;5.12;100.00;97976.72;4976662;28;20023;-96
2024/02/25 03:44:42;;;;;;;6.75;1.58;;;;;;;5.20;100.00;97968.84;4972970;28;20049;-96
2024/02/25 03:47:08;;;;;;;6.38;1.30;;;;;;;5.16;100.00;97967.56;4975619;28;20046;-96
2024/02/25 03:49:34;;;;;;;4.00;1.30;;;;;;;5.13;100.00;97971.31;4975101;28;20414;-96
2024/02/25 03:52:00;;;;;;;6.90;1.30;;;;;;;5.12;100.00;97966.25;4978768;28;20069;-96
2024/02/25 03:54:26;;;;;;;3.47;1.58;;;;;;;5.06;100.00;97963.34;4979211;28;20069;-96
2024/02/25 03:56:53;;;;;;;2.38;1.25;;;;;;;5.02;100.00;97963.84;4963996;28;20030;-96
2024/02/25 03:59:19;;;;;;;4.88;1.20;;;;;;;5.01;100.00;97954.38;4965954;28;20077;-96
2024/02/25 04:01:50;;;;;;;5.95;2.20;;;;;;;5.04;100.00;97957.47;4963600;28;20038;-96
2024/02/25 04:04:22;;;;;;;6.30;2.75;;;;;;;5.10;100.00;97953.34;4985915;28;20038;-96
2024/02/25 04:06:48;;;;;;;3.55;1.48;;;;;;;5.12;100.00;97951.38;4974528;28;20069;-96
2024/02/25 04:09:14;;;;;;;7.82;2.15;;;;;;;5.18;100.00;97945.44;4972134;28;20077;-96
2024/02/25 04:11:40;;;;;;;5.68;1.98;;;;;;;5.18;100.00;97937.59;4959221;28;20043;-96
2024/02/25 04:14:09;;;;;;;7.50;1.75;;;;;;;5.16;100.00;97936.16;4960990;28;20202;-96
2024/02/25 04:16:35;;;;;;;6.75;1.73;;;;;;;5.24;100.00;97940.53;4989932;28;20042;-96
2024/02/25 04:19:01;;;;;;;7.18;2.35;;;;;;;5.28;100.00;97936.56;4958299;28;20050;-96
2024/02/25 04:21:27;;;;;;;4.80;1.83;;;;;;;5.28;100.00;97942.63;4947221;28;20044;-96
2024/02/25 04:23:56;;;;;;;5.90;2.13;;;;;;;5.31;100.00;97930.97;4965143;28;20038;-96
2024/02/25 04:26:22;;;;;;;4.35;2.10;;;;;;;5.27;100.00;97929.69;4992082;28;20037;-96
2024/02/25 04:28:48;;;;;;;4.93;2.13;;;;;;;5.24;100.00;97919.56;4976575;28;20514;-96
2024/02/25 04:31:14;;;;;;;7.78;2.47;;;;;;;5.29;100.00;97923.28;4959062;28;20504;-96
2024/02/25 04:33:48;;;;;;;5.13;1.80;;;;;;;5.41;100.00;97925.53;4955723;28;20031;-96
2024/02/25 04:36:20;;;;;;;7.95;2.63;;;;;;;5.46;100.00;97925.81;4953823;28;20035;-96
2024/02/25 04:38:47;;;;;;;8.45;2.10;;;;;;;5.45;100.00;97924.16;4972054;28;20092;-96
2024/02/25 04:41:13;;;;;;;10.75;1.80;;;;;;;5.45;100.00;97918.94;4974262;28;20038;-96
2024/02/25 04:43:39;;;;;;;7.20;1.92;;;;;;;5.42;100.00;97912.25;4965322;28;20613;-96
2024/02/25 04:46:05;;;;;;;7.57;1.70;;;;;;;5.44;100.00;97914.69;4958855;28;20046;-96
2024/02/25 04:48:31;;;;;;;10.35;1.67;;;;;;;5.46;100.00;97916.13;4971505;28;20078;-96
2024/02/25 04:50:56;;;;;;;8.82;2.58;;;;;;;5.48;100.00;97910.72;4967269;28;20043;-96
2024/02/25 04:53:22;;;;;;;4.53;2.05;;;;;;;5.48;100.00;97915.97;4988266;28;20082;-96
2024/02/25 04:55:48;;;;;;;6.75;2.20;;;;;;;5.46;100.00;97910.09;4977112;28;20109;-96
2024/02/25 04:58:14;;;;;;;6.60;2.20;;;;;;;5.42;100.00;97907.00;4988584;28;20066;-96
2024/02/25 05:00:40;;;;;;;7.75;2.72;;;;;;;5.38;100.00;97907.53;4977510;28;20041;-96
2024/02/25 05:03:05;;;;;;;5.05;2.28;;;;;;;5.32;100.00;97901.16;4971227;28;20148;-96
2024/02/25 05:05:31;;;;;;;2.63;1.88;;;;;;;5.15;100.00;97901.28;4975024;28;20049;-96
2024/02/25 05:07:57;;;;;;;8.88;2.15;;;;;;;5.11;100.00;97907.03;4955859;28;20574;-96
2024/02/25 05:10:23;;;;;;;5.78;2.53;;;;;;;5.04;100.00;97901.66;4954959;28;20037;-96
2024/02/25 05:12:49;;;;;;;5.45;2.33;;;;;;;5.00;100.00;97906.41;4963724;28;20049;-96
2024/02/25 05:15:15;;;;;;;3.63;1.88;;;;;;;5.06;100.00;97904.94;4970148;28;20486;-96
2024/02/25 05:17:41;;;;;;;5.88;2.22;;;;;;;4.98;100.00;97905.78;4968978;28;20057;-96
2024/02/25 05:20:07;;;;;;;5.45;2.03;;;;;;;5.04;100.00;97899.88;4944355;28;20073;-96
2024/02/25 05:22:33;;;;;;;5.82;2.20;;;;;;;5.07;100.00;97899.53;4984603;28;20034;-96
2024/02/25 05:24:59;;;;;;;5.90;2.83;;;;;;;5.11;100.00;97901.78;4955917;28;20034;-96
2024/02/25 05:27:29;;;;;;;5.75;2.38;;;;;;;5.08;100.00;97895.09;4972579;28;20038;-96
2024/02/25 05:29:55;;;;;;;12.02;2.08;;;;;;;5.12;100.00;97906.03;4969486;28;20030;-96
2024/02/25 05:32:21;;;;;;;5.53;2.15;;;;;;;5.13;100.00;97910.31;4986786;28;20105;-96
2024/02/25 05:34:47;;;;;;;5.60;2.40;;;;;;;5.12;100.00;97906.03;4986759;28;20035;-96
2024/02/25 05:37:15;;;;;;;4.68;2.47;;;;;;;5.21;100.00;97912.84;4963302;28;20550;-96
2024/02/25 05:39:41;;;;;;;6.53;2.83;;;;;;;5.15;100.00;97901.28;4946787;28;20042;-96
2024/02/25 05:42:06;;;;;;;8.38;2.38;;;;;;;5.19;100.00;97894.69;4984513;28;20034;-96
2024/02/25 05:44:32;;;;;;;5.78;1.75;;;;;;;5.17;100.00;97898.47;4983638;28;20098;-96
2024/02/25 05:46:58;;;;;;;5.55;2.53;;;;;;;5.14;100.00;97904.06;4958142;28;20035;-96
2024/02/25 05:49:24;;;;;;;5.97;2.30;;;;;;;5.07;100.00;97901.31;4971998;28;20100;-96
2024/02/25 05:51:49;;;;;;;7.28;2.92;;;;;;;5.08;100.00;97898.53;4988792;28;20030;-96
2024/02/25 05:54:15;;;;;;;5.13;2.25;;;;;;;5.06;100.00;97892.66;4972755;28;20034;-96
2024/02/25 05:56:41;;;;;;;5.63;2.35;;;;;;;5.02;100.00;97896.59;4959409;28;20038;-96
2024/02/25 05:59:07;;;;;;;9.07;1.98;;;;;;;5.06;100.00;97889.22;4954832;28;20038;-96
2024/02/25 06:01:35;;;;;;;4.78;2.28;;;;;;;5.12;100.00;97901.63;4972067;28;20039;-96
2024/02/25 06:04:03;;;;;;;4.95;2.20;;;;;;;5.12;100.00;97893.75;4967469;28;20035;-96
2024/02/25 06:06:29;;;;;;;3.75;2.25;;;;;;;5.05;100.00;97880.53;4989954;28;20064;-96
2024/02/25 06:08:54;;;;;;;9.50;1.85;;;;;;;5.07;100.00;97883.81;4989009;28;20125;-96
2024/02/25 06:11:20;;;;;;;9.32;2.63;;;;;;;5.15;100.00;97885.56;4972630;28;20502;-96
2024/02/25 06:13:46;;;;;;;6.47;2.20;;;;;;;5.20;100.00;97904.19;4957901;28;20109;-96
2024/02/25 06:16:12;;;;;;;9.55;2.47;;;;;;;5.16;100.00;97889.00;4972775;28;20041;-96
2024/02/25 06:18:39;;;;;;;6.53;2.28;;;;;;;5.19;100.00;97899.94;4960022;28;20050;-96
2024/02/25 06:21:05;;;;;;;7.90;2.22;;;;;;;5.24;100.00;97907.25;4958883;28;20035;-96
2024/02/25 06:23:31;;;;;;;4.95;1.95;;;;;;;5.16;100.00;97902.91;5006805;28;20042;-96
2024/02/25 06:25:58;;;;;;;8.07;1.80;;;;;;;5.30;100.00;97903.97;4974792;28;20123;-96
2024/02/25 06:28:25;;;;;;;8.02;2.08;;;;;;;5.22;100.00;97912.69;4962996;28;20090;-96
2024/02/25 06:30:51;;;;;;;9.45;2.22;;;;;;;5.29;100.00;97894.47;4960362;28;20616;-96
2024/02/25 06:33:17;;;;;;;9.45;1.60;;;;;;;5.20;100.00;97896.34;4962541;28;20062;-96
2024/02/25 06:35:43;;;;;;;9.38;1.92;;;;;;;5.19;100.00;97899.94;4963581;28;20391;-96
2024/02/25 06:38:09;;;;;;;0.90;0.63;;;;;;;5.20;100.00;97896.34;4995050;28;20041;-96
2024/02/25 06:40:34;;;;;;;6.30;1.75;;;;;;;5.18;100.00;97893.06;4981035;28;20031;-96
2024/02/25 06:43:03;;;;;;;12.55;1.90;;;;;;;5.32;100.00;97894.13;4977593;28;20403;-96
2024/02/25 06:45:29;;;;;;;6.50;1.70;;;;;;;5.25;100.00;97890.59;4977237;28;20089;-96
2024/02/25 06:47:54;;;;;;;12.52;1.90;;;;;;;5.25;100.00;97893.22;4965942;28;20030;-96
2024/02/25 06:50:20;;;;;;;7.85;1.67;;;;;;;5.32;100.00;97896.75;4964705;28;20038;-96
2024/02/25 06:52:46;;;;;;;9.02;2.05;;;;;;;5.44;100.00;97893.72;4965095;28;20533;-96
2024/02/25 06:55:12;;;;;;;6.30;1.38;;;;;;;5.49;100.00;97894.03;4962901;28;20030;-96
2024/02/25 06:57:38;;;;;;;7.38;0.60;;;;;;;5.42;100.00;97909.63;4995553;28;20046;-96
2024/02/25 07:00:07;;;;;;;4.47;1.27;;;;;;;5.43;100.00;97899.97;4970546;28;20030;-96
2024/02/25 07:02:36;;;;;;;6.65;1.83;;;;;;;5.53;100.00;97911.03;4990803;28;20034;-96
2024/02/25 07:05:02;;;;;;;7.95;1.20;;;;;;;5.57;100.00;97899.19;4976987;28;20085;-96
2024/02/25 07:07:28;;;;;;;12.55;1.85;;;;;;;5.68;100.00;97902.41;4959806;28;20031;-95
2024/02/25 07:09:57;;;;;;;8.30;1.08;;;;;;;5.70;100.00;97906.47;4968656;28;20041;-96
2024/02/25 07:12:23;;;;;;;4.63;0.88;;;;;;;5.66;100.00;97914.88;4961200;28;20066;-96
2024/02/25 07:14:49;;;;;;;8.52;1.75;;;;;;;5.74;100.00;97914.81;4958904;28;20034;-96
2024/02/25 07:17:16;;;;;;;4.07;0.80;;;;;;;5.69;100.00;97925.00;5003594;28;20117;-96
2024/02/25 07:19:44;;;;;;;6.70;1.50;;;;;;;5.84;100.00;97927.69;4961905;28;20038;-96
2024/02/25 07:22:09;;;;;;;16.20;2.00;;;;;;;5.81;100.00;97922.78;4991367;28;20042;-96
2024/02/25 07:24:37;;;;;;;7.97;1.23;;;;;;;5.91;100.00;97940.91;4976282;28;20035;-96
2024/02/25 07:27:03;;;;;;;4.97;0.68;;;;;;;5.91;100.00;97936.47;4976030;28;20093;-96
2024/02/25 07:29:29;;;;;;;6.22;1.13;;;;;;;5.94;100.00;97943.97;4962790;28;20045;-96
2024/02/25 07:31:58;;;;;;;7.13;1.23;;;;;;;5.92;100.00;97937.28;4969393;28;20054;-96
2024/02/25 07:34:24;;;;;;;6.18;1.42;;;;;;;6.14;100.00;97945.31;4977050;28;20473;-96
2024/02/25 07:36:50;;;;;;;8.70;1.48;;;;;;;6.08;100.00;97939.00;4992368;28;20034;-96
2024/02/25 07:39:16;;;;;;;4.55;1.10;;;;;;;6.02;100.00;97943.09;4960206;28;20041;-96
2024/02/25 07:41:47;;;;;;;6.72;0.80;;;;;;;6.00;100.00;97947.72;4960927;28;20407;-96
2024/02/25 07:44:13;;;;;;;15.95;1.80;;;;;;;6.11;100.00;97961.41;4959777;28;20078;-96
2024/02/25 07:46:39;;;;;;;12.48;1.73;;;;;;;6.13;100.00;97954.97;4987363;28;20084;-96
2024/02/25 07:49:05;;;;;;;4.05;0.60;;;;;;;6.15;100.00;97962.69;4975664;28;20038;-96
2024/02/25 07:51:35;;;;;;;6.72;1.20;;;;;;;6.22;100.00;97958.38;4958539;28;20095;-96
2024/02/25 07:54:01;;;;;;;9.13;1.63;;;;;;;6.10;100.00;97952.72;4973129;28;20045;-96
2024/02/25 07:56:27;;;;;;;8.77;1.27;;;;;;;6.15;100.00;97960.06;4977025;28;20035;-93
2024/02/25 07:58:53;;;;;;;10.32;3.17;;;;;;;6.16;100.00;97970.38;4954930;28;20039;-93
2024/02/25 08:01:19;;;;;;;5.70;1.10;;;;;;;6.10;100.00;97967.66;4954543;28;20051;-92
2024/02/25 08:03:45;;;;;;;11.48;1.40;;;;;;;6.13;100.00;97968.09;4953020;28;20041;-93
2024/02/25 08:06:11;;;;;;;7.38;1.42;;;;;;;6.20;100.00;97976.91;4951665;28;20033;-94
2024/02/25 08:08:37;;;;;;;7.10;1.88;;;;;;;6.17;100.00;97981.69;4977042;28;20069;-96
2024/02/25 08:11:03;;;;;;;9.55;1.77;;;;;;;6.17;100.00;97974.63;4977030;28;20038;-96
2024/02/25 08:13:29;;;;;;;11.70;1.70;;;;;;;6.23;100.00;97980.97;4967679;28;20494;-96
2024/02/25 08:15:55;;;;;;;6.75;1.00;;;;;;;6.22;100.00;97986.41;4988589;28;20037;-96
2024/02/25 08:18:21;;;;;;;10.30;1.63;;;;;;;6.24;100.00;97985.25;4958275;28;20054;-96
2024/02/25 08:20:46;;;;;;;8.20;1.20;;;;;;;6.24;100.00;97998.38;4971835;28;20492;-96
2024/02/25 08:23:14;;;;;;;12.02;1.27;;;;;;;6.24;100.00;97993.13;4985284;28;20038;-95
2024/02/25 08:25:40;;;;;;;12.48;1.10;;;;;;;6.25;100.00;97999.97;4989729;28;20447;-96
2024/02/25 08:28:06;;;;;;;6.15;1.08;;;;;;;6.24;100.00;97997.53;4959539;28;20410;-96
2024/02/25 08:30:32;;;;;;;8.93;1.48;;;;;;;6.20;100.00;98000.50;4961341;28;20081;-96
2024/02/25 08:32:58;;;;;;;6.88;0.82;;;;;;;6.09;100.00;97998.31;4976689;28;20042;-96
2024/02/25 08:35:24;;;;;;;14.90;3.35;;;;;;;6.18;100.00;97993.81;4976341;28;20435;-96
2024/02/25 08:37:50;;;;;;;4.53;1.15;;;;;;;6.21;100.00;98014.47;4967175;28;20494;-96
2024/02/25 08:40:15;;;;;;;4.32;0.55;;;;;;;6.14;100.00;98019.59;4963911;28;20053;-96
2024/02/25 08:42:41;;;;;;;3.97;0.85;;;;;;;6.18;100.00;98020.06;4967064;28;20050;-96
2024/02/25 08:45:08;;;;;;;9.98;1.50;;;;;;;6.23;100.00;98019.53;4986177;28;20489;-96
2024/02/25 08:47:34;;;;;;;8.30;0.95;;;;;;;6.22;100.00;98016.06;4978414;28;20072;-96
2024/02/25 08:50:00;;;;;;;4.35;0.80;;;;;;;6.25;100.00;98020.97;4960663;28;20080;-96
2024/02/25 08:52:26;;;;;;;11.98;1.35;;;;;;;6.18;100.00;98009.56;4992433;28;20034;-96
2024/02/25 08:54:52;;;;;;;7.95;1.00;;;;;;;6.29;100.00;98024.84;4972656;28;20034;-96
2024/02/25 08:57:18;;;;;;;6.60;1.08;;;;;;;6.26;100.00;98032.28;4962180;28;20037;-96
2024/02/25 08:59:43;;;;;;;6.78;1.25;;;;;;;6.27;100.00;98021.63;4995923;28;20477;-96
2024/02/25 09:02:09;;;;;;;4.43;0.93;;;;;;;6.26;100.00;98019.16;4977663;28;20037;-96
2024/02/25 09:04:35;;;;;;;6.93;1.00;;;;;;;6.35;100.00;98012.84;4961321;28;20038;-96
2024/02/25 09:07:03;;;;;;;15.75;1.85;;;;;;;6.34;100.00;98019.09;4980727;28;20029;-96
2024/02/25 09:09:29;;;;;;;11.93;1.92;;;;;;;6.31;100.00;98016.81;4959176;28;20072;-96
2024/02/25 09:11:56;;;;;;;11.48;1.65;;;;;;;6.36;100.00;98029.41;4981123;28;20030;-96
2024/02/25 09:14:22;;;;;;;7.93;1.70;;;;;;;6.25;100.00;98028.00;4979301;28;20053;-95
2024/02/25 09:16:48;;;;;;;6.80;1.52;;;;;;;6.27;100.00;98029.50;4998541;28;20529;-96
2024/02/25 09:19:14;;;;;;;10.13;1.58;;;;;;;6.35;100.00;98019.91;4978618;28;20034;-96
2024/02/25 09:21:40;;;;;;;6.18;0.90;;;;;;;6.31;100.00;98022.88;4962654;28;20033;-96
2024/02/25 09:24:07;;;;;;;8.23;1.00;;;;;;;6.39;100.00;98026.41;4983278;28;20034;-96
2024/02/25 09:26:33;;;;;;;12.73;1.77;;;;;;;6.41;100.00;98032.31;4994920;28;20120;-96
2024/02/25 09:28:59;;;;;;;6.90;1.27;;;;;;;6.47;100.00;98031.59;5001218;28;20062;-96
2024/02/25 09:31:25;;;;;;;6.15;1.13;;;;;;;6.50;100.00;98033.06;4960935;28;20077;-96
2024/02/25 09:33:54;;;;;;;6.97;1.75;;;;;;;6.56;100.00;98045.47;4993803;28;20054;-96
2024/02/25 09:36:25;;;;;;;10.73;1.05;;;;;;;6.63;100.00;98037.69;4975246;28;20084;-96
2024/02/25 09:38:51;;;;;;;11.63;1.38;;;;;;;6.58;100.00;98053.97;4974733;28;20034;-96
2024/02/25 09:41:28;;;;;;;10.35;1.27;;;;;;;6.62;100.00;98047.41;4976474;28;20035;-96
2024/02/25 09:43:55;;;;;;;8.90;1.17;;;;;;;6.51;100.00;98042.56;4972398;28;20041;-96
2024/02/25 09:46:25;;;;;;;4.75;1.15;;;;;;;6.41;100.00;98053.31;4976113;28;20038;-94
2024/02/25 09:48:52;;;;;;;3.22;0.60;;;;;;;6.32;100.00;98053.38;4976618;28;20034;-96
2024/02/25 09:51:21;;;;;;;5.45;1.25;;;;;;;6.24;100.00;98048.19;4986779;28;20706;-96
2024/02/25 09:53:55;;;;;;;4.57;1.05;;;;;;;6.20;100.00;98058.22;4977888;28;20153;-96
2024/02/25 09:56:22;;;;;;;5.80;1.50;;;;;;;6.08;100.00;98060.41;4978438;28;20722;-96
2024/02/25 09:58:49;;;;;;;7.40;1.52;;;;;;;6.11;100.00;98069.75;4953953;28;20034;-96
2024/02/25 10:01:16;;;;;;;7.35;1.33;;;;;;;6.08;100.00;98070.91;4995589;28;20042;-96
2024/02/25 10:03:42;;;;;;;6.80;1.33;;;;;;;6.04;100.00;98072.25;4959078;28;21095;-96
2024/02/25 10:06:08;;;;;;;9.40;2.20;;;;;;;6.05;100.00;98081.75;4979903;28;20041;-96
2024/02/25 10:08:48;;;;;;;6.07;0.80;;;;;;;6.06;100.00;98077.34;4993274;28;20041;-96
2024/02/25 10:11:14;;;;;;;6.45;1.48;;;;;;;6.04;100.00;98087.13;4972240;28;20038;-96
2024/02/25 10:13:42;;;;;;;5.82;1.30;;;;;;;6.02;100.00;98079.44;4960304;28;20038;-96
2024/02/25 10:16:17;;;;;;;11.57;1.63;;;;;;;6.11;100.00;98098.63;4974498;28;20420;-96
2024/02/25 10:18:44;;;;;;;6.57;1.40;;;;;;;6.15;100.00;98096.44;4985906;28;20148;-91
2024/02/25 10:21:10;;;;;;;5.43;1.20;;;;;;;6.12;100.00;98107.28;4965819;28;20043;-93
2024/02/25 10:23:36;;;;;;;7.07;2.00;;;;;;;6.19;100.00;98118.72;4985346;28;20084;-96
2024/02/25 10:26:18;;;;;;;11.15;2.47;;;;;;;6.27;100.00;98112.59;5013653;28;20035;-96
2024/02/25 10:28:45;;;;;;;7.93;1.60;;;;;;;6.23;100.00;98108.72;4966224;28;20035;-96
2024/02/25 10:31:16;;;;;;;5.30;1.65;;;;;;;6.30;100.00;98113.09;4984799;28;20046;-96
2024/02/25 10:33:46;;;;;;;4.22;1.20;;;;;;;6.33;100.00;98125.03;4970680;28;20072;-96
2024/02/25 10:36:15;;;;;;;3.67;1.35;;;;;;;6.38;100.00;98125.34;5003652;28;20242;-96
2024/02/25 10:38:46;;;;;;;3.35;0.75;;;;;;;6.39;100.00;98120.88;4982254;28;20118;-96
2024/02/25 10:41:15;;;;;;;8.02;1.50;;;;;;;6.46;100.00;98129.69;4987830;28;20070;-95
2024/02/25 10:43:44;;;;;;;7.47;1.65;;;;;;;6.46;100.00;98134.94;4962594;28;20081;-95
2024/02/25 10:46:32;;;;;;;4.15;1.00;;;;;;;6.50;100.00;98138.84;4987312;28;20053;-95
2024/02/25 10:49:02;;;;;;;9.40;1.38;;;;;;;6.57;100.00;98141.59;4983798;28;20038;-95
2024/02/25 10:51:29;;;;;;;3.03;0.70;;;;;;;6.58;100.00;98145.84;4970916;28;20039;-96
2024/02/25 10:53:55;;;;;;;5.95;1.10;;;;;;;6.57;100.00;98144.22;4973570;28;20050;-94
2024/02/25 10:56:21;;;;;;;4.05;1.25;;;;;;;6.58;100.00;98143.22;4955364;28;20038;-96
2024/02/25 10:58:51;;;;;;;2.75;0.63;;;;;;;6.56;100.00;98148.66;4956796;28;20124;-95
2024/02/25 11:01:19;;;;;;;11.35;1.50;;;;;;;6.57;100.00;98163.41;4984292;28;20034;-94
2024/02/25 11:03:46;;;;;;;5.40;1.45;;;;;;;6.60;100.00;98164.03;4973367;28;20027;-95
2024/02/25 11:06:37;;;;;;;10.13;1.77;;;;;;;6.65;100.00;98161.72;4972877;28;20454;-96
2024/02/25 11:09:12;;;;;;;5.22;1.10;;;;;;;6.63;100.00;98161.88;4984859;28;20438;-95
2024/02/25 11:11:38;;;;;;;4.10;1.05;;;;;;;6.61;100.00;98169.13;4954559;28;20050;-96
2024/02/25 11:14:11;;;;;;;5.40;1.35;;;;;;;6.64;100.00;98181.88;4957161;28;20571;-96
2024/02/25 11:16:42;;;;;;;8.73;1.30;;;;;;;6.78;100.00;98192.63;4966763;28;20046;-95
2024/02/25 11:19:13;;;;;;;10.27;1.63;;;;;;;6.79;100.00;98191.63;4975413;28;20484;-96
2024/02/25 11:21:40;;;;;;;5.68;1.55;;;;;;;6.79;100.00;98200.34;4978069;28;20105;-96
2024/02/25 11:24:11;;;;;;;6.05;1.42;;;;;;;6.81;100.00;98211.50;4976954;28;20038;-96
2024/02/25 11:26:41;;;;;;;3.63;1.20;;;;;;;6.79;100.00;98207.38;4975226;28;20495;-94
2024/02/25 11:29:14;;;;;;;2.38;0.52;;;;;;;6.86;100.00;98212.75;4959672;28;20037;-96
2024/02/25 11:31:51;;;;;;;8.93;1.40;;;;;;;6.91;100.00;98210.44;4978474;28;20120;-96
2024/02/25 11:34:24;;;;;;;6.55;1.70;;;;;;;7.00;100.00;98216.44;4964511;28;20034;-96
2024/02/25 11:36:52;;;;;;;3.80;1.58;;;;;;;6.98;100.00;98224.47;4960273;28;20494;-96
2024/02/25 11:39:21;;;;;;;6.35;1.63;;;;;;;7.11;100.00;98233.56;4968935;28;20042;-96